sensor_id;sensor_type;location;lat;lon;timestamp;pressure;altitude;pressure_sealevel;temperature;humidity
35848;BME280;22332;51.954;20.118;2023-09-12T00:02:34;99905.58;;;16.07;76.33
35848;BME280;22332;51.954;20.118;2023-09-12T00:05:40;99898.10;;;16.04;76.50
35848;BME280;22332;51.954;20.118;2023-09-12T00:08:46;99899.55;;;16.03;76.68
35848;BME280;22332;51.954;20.118;2023-09-12T00:11:51;99897.63;;;16.05;76.63
35848;BME280;22332;51.954;20.118;2023-09-12T00:14:57;99898.39;;;16.04;76.48
35848;BME280;22332;51.954;20.118;2023-09-12T00:18:03;99895.59;;;16.00;76.53
35848;BME280;22332;51.954;20.118;2023-09-12T00:21:08;99897.81;;;15.97;76.66
35848;BME280;22332;51.954;20.118;2023-09-12T00:24:14;99895.55;;;15.94;76.69
35848;BME280;22332;51.954;20.118;2023-09-12T00:27:20;99899.59;;;15.92;76.95
35848;BME280;22332;51.954;20.118;2023-09-12T00:30:25;99901.79;;;15.91;77.06
35848;BME280;22332;51.954;20.118;2023-09-12T00:33:31;99895.41;;;15.92;77.11
35848;BME280;22332;51.954;20.118;2023-09-12T00:36:36;99898.29;;;15.92;77.08
35848;BME280;22332;51.954;20.118;2023-09-12T00:39:42;99896.48;;;15.91;77.07
35848;BME280;22332;51.954;20.118;2023-09-12T00:42:47;99893.30;;;15.85;77.19
35848;BME280;22332;51.954;20.118;2023-09-12T00:45:53;99895.01;;;15.67;77.32
35848;BME280;22332;51.954;20.118;2023-09-12T00:49:00;99896.38;;;15.63;77.49
35848;BME280;22332;51.954;20.118;2023-09-12T00:52:06;99893.48;;;15.63;77.58
35848;BME280;22332;51.954;20.118;2023-09-12T00:55:13;99889.65;;;15.66;77.63
35848;BME280;22332;51.954;20.118;2023-09-12T00:58:19;99889.91;;;15.67;77.78
35848;BME280;22332;51.954;20.118;2023-09-12T01:01:25;99885.48;;;15.67;77.56
35848;BME280;22332;51.954;20.118;2023-09-12T01:04:31;99884.52;;;15.59;77.75
35848;BME280;22332;51.954;20.118;2023-09-12T01:07:38;99882.40;;;15.47;77.89
35848;BME280;22332;51.954;20.118;2023-09-12T01:10:44;99882.83;;;15.44;77.84
35848;BME280;22332;51.954;20.118;2023-09-12T01:13:51;99882.21;;;15.45;77.96
35848;BME280;22332;51.954;20.118;2023-09-12T01:16:57;99889.27;;;15.48;78.05
35848;BME280;22332;51.954;20.118;2023-09-12T01:20:06;99887.56;;;15.52;78.07
35848;BME280;22332;51.954;20.118;2023-09-12T01:23:25;99887.42;;;15.51;78.20
35848;BME280;22332;51.954;20.118;2023-09-12T01:26:43;99885.98;;;15.50;78.18
35848;BME280;22332;51.954;20.118;2023-09-12T01:29:57;99887.48;;;15.44;78.30
35848;BME280;22332;51.954;20.118;2023-09-12T01:33:05;99888.64;;;15.38;78.44
35848;BME280;22332;51.954;20.118;2023-09-12T01:36:11;99888.61;;;15.39;78.37
35848;BME280;22332;51.954;20.118;2023-09-12T01:39:17;99890.59;;;15.43;78.52
35848;BME280;22332;51.954;20.118;2023-09-12T01:42:23;99890.86;;;15.44;78.46
35848;BME280;22332;51.954;20.118;2023-09-12T01:45:30;99890.83;;;15.43;78.49
35848;BME280;22332;51.954;20.118;2023-09-12T01:48:37;99893.07;;;15.38;78.56
35848;BME280;22332;51.954;20.118;2023-09-12T01:51:44;99896.19;;;15.36;78.69
35848;BME280;22332;51.954;20.118;2023-09-12T01:54:51;99888.45;;;15.39;78.78
35848;BME280;22332;51.954;20.118;2023-09-12T01:57:57;99889.13;;;15.41;78.76
35848;BME280;22332;51.954;20.118;2023-09-12T02:01:03;99888.99;;;15.41;78.34
35848;BME280;22332;51.954;20.118;2023-09-12T02:04:09;99889.10;;;15.34;78.54
35848;BME280;22332;51.954;20.118;2023-09-12T02:07:14;99891.49;;;15.29;78.84
35848;BME280;22332;51.954;20.118;2023-09-12T02:10:20;99892.85;;;15.24;78.78
35848;BME280;22332;51.954;20.118;2023-09-12T02:13:26;99891.61;;;15.22;78.76
35848;BME280;22332;51.954;20.118;2023-09-12T02:16:32;99886.27;;;15.22;78.93
35848;BME280;22332;51.954;20.118;2023-09-12T02:19:37;99888.30;;;15.19;79.03
35848;BME280;22332;51.954;20.118;2023-09-12T02:22:43;99887.83;;;15.16;79.23
35848;BME280;22332;51.954;20.118;2023-09-12T02:25:49;99885.02;;;15.17;79.29
35848;BME280;22332;51.954;20.118;2023-09-12T02:28:55;99883.86;;;15.13;78.95
35848;BME280;22332;51.954;20.118;2023-09-12T02:32:00;99882.92;;;15.06;79.17
35848;BME280;22332;51.954;20.118;2023-09-12T02:35:07;99883.77;;;15.08;79.19
35848;BME280;22332;51.954;20.118;2023-09-12T02:38:13;99882.46;;;15.08;79.22
35848;BME280;22332;51.954;20.118;2023-09-12T02:41:18;99882.61;;;15.04;79.28
35848;BME280;22332;51.954;20.118;2023-09-12T02:44:24;99879.96;;;14.95;79.14
35848;BME280;22332;51.954;20.118;2023-09-12T02:47:30;99883.33;;;14.89;79.37
35848;BME280;22332;51.954;20.118;2023-09-12T02:50:35;99881.95;;;14.83;79.53
35848;BME280;22332;51.954;20.118;2023-09-12T02:53:41;99879.55;;;14.81;79.62
35848;BME280;22332;51.954;20.118;2023-09-12T02:56:46;99880.93;;;14.77;79.58
35848;BME280;22332;51.954;20.118;2023-09-12T02:59:52;99882.95;;;14.74;79.52
35848;BME280;22332;51.954;20.118;2023-09-12T03:02:57;99884.33;;;14.74;79.78
35848;BME280;22332;51.954;20.118;2023-09-12T03:06:03;99884.59;;;14.79;79.77
35848;BME280;22332;51.954;20.118;2023-09-12T03:09:09;99880.95;;;14.79;79.78
35848;BME280;22332;51.954;20.118;2023-09-12T03:12:15;99880.64;;;14.77;79.45
35848;BME280;22332;51.954;20.118;2023-09-12T03:15:21;99879.60;;;14.76;79.83
35848;BME280;22332;51.954;20.118;2023-09-12T03:18:26;99882.11;;;14.79;79.90
35848;BME280;22332;51.954;20.118;2023-09-12T03:21:33;99883.86;;;14.81;79.92
35848;BME280;22332;51.954;20.118;2023-09-12T03:24:39;99880.20;;;14.79;79.81
35848;BME280;22332;51.954;20.118;2023-09-12T03:27:44;99881.91;;;14.79;79.89
35848;BME280;22332;51.954;20.118;2023-09-12T03:30:50;99883.91;;;14.70;79.50
35848;BME280;22332;51.954;20.118;2023-09-12T03:33:55;99885.52;;;14.66;80.01
35848;BME280;22332;51.954;20.118;2023-09-12T03:37:01;99883.42;;;14.67;80.03
35848;BME280;22332;51.954;20.118;2023-09-12T03:40:10;99887.17;;;14.70;80.01
35848;BME280;22332;51.954;20.118;2023-09-12T03:43:16;99883.08;;;14.74;80.16
35848;BME280;22332;51.954;20.118;2023-09-12T03:46:22;99888.48;;;14.76;80.18
35848;BME280;22332;51.954;20.118;2023-09-12T03:49:28;99886.43;;;14.75;80.24
35848;BME280;22332;51.954;20.118;2023-09-12T03:52:34;99888.02;;;14.73;80.22
35848;BME280;22332;51.954;20.118;2023-09-12T03:55:39;99889.66;;;14.75;80.32
35848;BME280;22332;51.954;20.118;2023-09-12T03:58:45;99890.89;;;14.77;80.38
35848;BME280;22332;51.954;20.118;2023-09-12T04:01:51;99893.35;;;14.80;80.36
35848;BME280;22332;51.954;20.118;2023-09-12T04:04:56;99897.59;;;14.77;80.43
35848;BME280;22332;51.954;20.118;2023-09-12T04:08:04;99897.74;;;14.76;80.69
35848;BME280;22332;51.954;20.118;2023-09-12T04:11:09;99894.86;;;14.76;80.70
35848;BME280;22332;51.954;20.118;2023-09-12T04:14:16;99893.75;;;14.78;80.79
35848;BME280;22332;51.954;20.118;2023-09-12T04:17:22;99891.55;;;14.81;80.85
35848;BME280;22332;51.954;20.118;2023-09-12T04:20:28;99889.70;;;14.85;80.82
35848;BME280;22332;51.954;20.118;2023-09-12T04:23:33;99892.16;;;14.88;80.92
35848;BME280;22332;51.954;20.118;2023-09-12T04:26:40;99892.01;;;14.89;80.75
35848;BME280;22332;51.954;20.118;2023-09-12T04:29:45;99893.09;;;14.90;80.78
35848;BME280;22332;51.954;20.118;2023-09-12T04:32:51;99889.97;;;14.98;81.27
35848;BME280;22332;51.954;20.118;2023-09-12T04:36:00;99895.73;;;15.09;80.87
35848;BME280;22332;51.954;20.118;2023-09-12T04:39:06;99889.02;;;15.15;80.80
35848;BME280;22332;51.954;20.118;2023-09-12T04:42:12;99891.30;;;15.21;80.83
35848;BME280;22332;51.954;20.118;2023-09-12T04:45:18;99886.27;;;15.28;81.10
35848;BME280;22332;51.954;20.118;2023-09-12T04:48:24;99887.73;;;15.38;81.31
35848;BME280;22332;51.954;20.118;2023-09-12T04:51:32;99891.80;;;15.54;81.42
35848;BME280;22332;51.954;20.118;2023-09-12T04:54:38;99889.30;;;15.72;81.67
35848;BME280;22332;51.954;20.118;2023-09-12T04:57:43;99891.76;;;15.95;81.58
35848;BME280;22332;51.954;20.118;2023-09-12T05:00:49;99892.88;;;16.17;81.36
35848;BME280;22332;51.954;20.118;2023-09-12T05:03:55;99895.69;;;16.33;81.07
35848;BME280;22332;51.954;20.118;2023-09-12T05:07:00;99898.34;;;16.48;81.56
35848;BME280;22332;51.954;20.118;2023-09-12T05:10:09;99900.05;;;16.71;81.17
35848;BME280;22332;51.954;20.118;2023-09-12T05:13:15;99900.33;;;16.84;81.16
35848;BME280;22332;51.954;20.118;2023-09-12T05:16:22;99901.33;;;17.00;81.09
35848;BME280;22332;51.954;20.118;2023-09-12T05:19:29;99899.98;;;17.11;81.09
35848;BME280;22332;51.954;20.118;2023-09-12T05:22:35;99902.95;;;17.23;80.98
35848;BME280;22332;51.954;20.118;2023-09-12T05:25:40;99904.53;;;17.32;81.10
35848;BME280;22332;51.954;20.118;2023-09-12T05:28:47;99907.60;;;17.39;81.19
35848;BME280;22332;51.954;20.118;2023-09-12T05:31:53;99912.05;;;17.49;81.31
35848;BME280;22332;51.954;20.118;2023-09-12T05:34:59;99911.27;;;17.63;81.80
35848;BME280;22332;51.954;20.118;2023-09-12T05:38:05;99912.27;;;17.79;81.71
35848;BME280;22332;51.954;20.118;2023-09-12T05:41:10;99911.73;;;17.93;81.65
35848;BME280;22332;51.954;20.118;2023-09-12T05:44:16;99907.81;;;18.04;81.73
35848;BME280;22332;51.954;20.118;2023-09-12T05:47:24;99911.29;;;18.12;81.76
35848;BME280;22332;51.954;20.118;2023-09-12T05:50:29;99909.69;;;18.19;81.95
35848;BME280;22332;51.954;20.118;2023-09-12T05:53:35;99910.13;;;18.28;82.16
35848;BME280;22332;51.954;20.118;2023-09-12T05:56:41;99911.54;;;18.41;82.27
35848;BME280;22332;51.954;20.118;2023-09-12T05:59:47;99911.52;;;18.57;82.45
35848;BME280;22332;51.954;20.118;2023-09-12T06:02:53;99912.38;;;18.72;82.61
35848;BME280;22332;51.954;20.118;2023-09-12T06:05:58;99913.42;;;18.85;82.71
35848;BME280;22332;51.954;20.118;2023-09-12T06:09:04;99913.45;;;18.98;82.91
35848;BME280;22332;51.954;20.118;2023-09-12T06:12:10;99913.63;;;19.11;83.20
35848;BME280;22332;51.954;20.118;2023-09-12T06:15:15;99911.79;;;19.23;82.98
35848;BME280;22332;51.954;20.118;2023-09-12T06:18:21;99912.11;;;19.38;82.94
35848;BME280;22332;51.954;20.118;2023-09-12T06:21:28;99914.92;;;19.51;82.98
35848;BME280;22332;51.954;20.118;2023-09-12T06:24:33;99914.41;;;19.62;82.77
35848;BME280;22332;51.954;20.118;2023-09-12T06:27:39;99917.31;;;19.72;82.76
35848;BME280;22332;51.954;20.118;2023-09-12T06:30:45;99922.63;;;19.93;82.01
35848;BME280;22332;51.954;20.118;2023-09-12T06:33:50;99916.42;;;20.14;81.67
35848;BME280;22332;51.954;20.118;2023-09-12T06:36:56;99921.56;;;20.30;81.60
35848;BME280;22332;51.954;20.118;2023-09-12T06:40:05;99921.43;;;20.41;81.42
35848;BME280;22332;51.954;20.118;2023-09-12T06:43:10;99924.75;;;20.49;81.56
35848;BME280;22332;51.954;20.118;2023-09-12T06:46:16;99929.19;;;20.57;81.18
35848;BME280;22332;51.954;20.118;2023-09-12T07:15:12;99934.80;;;21.38;79.82
35848;BME280;22332;51.954;20.118;2023-09-12T07:18:18;99938.80;;;21.61;80.49
35848;BME280;22332;51.954;20.118;2023-09-12T07:21:24;99939.11;;;21.70;80.72
35848;BME280;22332;51.954;20.118;2023-09-12T07:24:30;99939.50;;;21.77;80.32
35848;BME280;22332;51.954;20.118;2023-09-12T07:27:36;99935.14;;;21.83;80.26
35848;BME280;22332;51.954;20.118;2023-09-12T07:30:41;99936.20;;;21.90;79.93
35848;BME280;22332;51.954;20.118;2023-09-12T07:33:47;99939.76;;;21.96;80.04
35848;BME280;22332;51.954;20.118;2023-09-12T07:36:53;99937.70;;;22.02;79.95
35848;BME280;22332;51.954;20.118;2023-09-12T07:39:59;99937.45;;;22.05;79.84
35848;BME280;22332;51.954;20.118;2023-09-12T07:43:04;99938.95;;;22.11;79.67
35848;BME280;22332;51.954;20.118;2023-09-12T07:46:11;99933.13;;;22.18;79.52
35848;BME280;22332;51.954;20.118;2023-09-12T07:49:17;99932.70;;;22.27;79.21
35848;BME280;22332;51.954;20.118;2023-09-12T07:52:24;99934.13;;;22.37;78.90
35848;BME280;22332;51.954;20.118;2023-09-12T07:55:29;99932.45;;;22.43;78.49
35848;BME280;22332;51.954;20.118;2023-09-12T07:58:40;99929.63;;;22.46;78.08
35848;BME280;22332;51.954;20.118;2023-09-12T08:01:46;99932.46;;;22.51;77.78
35848;BME280;22332;51.954;20.118;2023-09-12T08:04:52;99932.63;;;22.59;77.76
35848;BME280;22332;51.954;20.118;2023-09-12T08:07:58;99929.21;;;22.62;77.39
35848;BME280;22332;51.954;20.118;2023-09-12T08:11:05;99925.30;;;22.65;77.50
35848;BME280;22332;51.954;20.118;2023-09-12T08:14:10;99928.75;;;22.71;77.22
35848;BME280;22332;51.954;20.118;2023-09-12T08:17:16;99930.68;;;22.79;77.08
35848;BME280;22332;51.954;20.118;2023-09-12T08:20:22;99925.92;;;22.88;76.94
35848;BME280;22332;51.954;20.118;2023-09-12T08:23:28;99927.33;;;22.99;76.17
35848;BME280;22332;51.954;20.118;2023-09-12T08:26:33;99925.63;;;23.11;76.20
35848;BME280;22332;51.954;20.118;2023-09-12T08:29:39;99926.73;;;23.19;75.68
35848;BME280;22332;51.954;20.118;2023-09-12T08:32:46;99922.55;;;23.31;74.91
35848;BME280;22332;51.954;20.118;2023-09-12T08:35:51;99923.86;;;23.38;75.03
35848;BME280;22332;51.954;20.118;2023-09-12T08:38:57;99923.98;;;23.44;72.82
35848;BME280;22332;51.954;20.118;2023-09-12T08:42:06;99923.04;;;23.57;73.85
35848;BME280;22332;51.954;20.118;2023-09-12T08:45:15;99927.33;;;23.59;73.84
35848;BME280;22332;51.954;20.118;2023-09-12T08:48:22;99931.23;;;23.58;73.53
35848;BME280;22332;51.954;20.118;2023-09-12T08:51:28;99930.88;;;23.60;72.71
35848;BME280;22332;51.954;20.118;2023-09-12T08:54:34;99929.59;;;23.65;72.12
35848;BME280;22332;51.954;20.118;2023-09-12T08:57:41;99929.16;;;23.70;72.69
35848;BME280;22332;51.954;20.118;2023-09-12T09:00:48;99928.11;;;23.86;72.16
35848;BME280;22332;51.954;20.118;2023-09-12T09:03:54;99927.27;;;23.95;72.22
35848;BME280;22332;51.954;20.118;2023-09-12T09:07:00;99927.23;;;24.00;71.85
35848;BME280;22332;51.954;20.118;2023-09-12T09:10:09;99927.67;;;24.07;70.42
35848;BME280;22332;51.954;20.118;2023-09-12T09:13:15;99925.84;;;24.20;70.24
35848;BME280;22332;51.954;20.118;2023-09-12T09:16:21;99925.89;;;24.28;70.32
35848;BME280;22332;51.954;20.118;2023-09-12T09:19:41;99928.36;;;24.29;70.07
35848;BME280;22332;51.954;20.118;2023-09-12T09:22:59;99917.86;;;24.35;70.45
35848;BME280;22332;51.954;20.118;2023-09-12T09:26:04;99922.57;;;24.37;70.23
35848;BME280;22332;51.954;20.118;2023-09-12T09:29:13;99917.46;;;24.43;70.09
35848;BME280;22332;51.954;20.118;2023-09-12T09:32:19;99916.35;;;24.45;69.87
35848;BME280;22332;51.954;20.118;2023-09-12T09:35:26;99917.71;;;24.46;69.12
35848;BME280;22332;51.954;20.118;2023-09-12T09:38:32;99911.98;;;24.48;66.22
35848;BME280;22332;51.954;20.118;2023-09-12T09:41:40;99909.41;;;24.60;65.92
35848;BME280;22332;51.954;20.118;2023-09-12T09:44:45;99909.98;;;24.70;67.05
35848;BME280;22332;51.954;20.118;2023-09-12T09:47:54;99908.29;;;24.70;66.17
35848;BME280;22332;51.954;20.118;2023-09-12T09:51:04;99904.94;;;24.73;66.69
35848;BME280;22332;51.954;20.118;2023-09-12T09:54:10;99902.61;;;24.76;65.15
35848;BME280;22332;51.954;20.118;2023-09-12T09:57:16;99897.96;;;24.80;65.16
35848;BME280;22332;51.954;20.118;2023-09-12T10:00:24;99898.16;;;24.87;63.93
35848;BME280;22332;51.954;20.118;2023-09-12T10:03:34;99895.15;;;25.02;63.03
35848;BME280;22332;51.954;20.118;2023-09-12T10:06:50;99896.48;;;25.21;61.46
35848;BME280;22332;51.954;20.118;2023-09-12T10:10:11;99894.58;;;25.42;62.55
35848;BME280;22332;51.954;20.118;2023-09-12T10:13:18;99895.52;;;25.32;62.28
35848;BME280;22332;51.954;20.118;2023-09-12T10:17:00;99899.85;;;25.28;61.56
35848;BME280;22332;51.954;20.118;2023-09-12T10:20:28;99893.95;;;25.27;62.09
35848;BME280;22332;51.954;20.118;2023-09-12T10:23:39;99892.96;;;25.32;61.59
35848;BME280;22332;51.954;20.118;2023-09-12T10:26:47;99890.34;;;25.41;59.02
35848;BME280;22332;51.954;20.118;2023-09-12T10:29:54;99890.55;;;25.52;59.07
35848;BME280;22332;51.954;20.118;2023-09-12T10:33:02;99884.51;;;25.69;58.85
35848;BME280;22332;51.954;20.118;2023-09-12T10:36:10;99884.17;;;25.85;55.58
35848;BME280;22332;51.954;20.118;2023-09-12T10:39:16;99884.11;;;26.06;58.66
35848;BME280;22332;51.954;20.118;2023-09-12T10:42:25;99884.54;;;25.95;58.83
35848;BME280;22332;51.954;20.118;2023-09-12T10:45:32;99885.44;;;25.91;56.52
35848;BME280;22332;51.954;20.118;2023-09-12T10:48:38;99883.59;;;26.00;57.22
35848;BME280;22332;51.954;20.118;2023-09-12T10:51:46;99882.56;;;25.95;57.11
35848;BME280;22332;51.954;20.118;2023-09-12T10:54:52;99879.78;;;25.88;57.67
35848;BME280;22332;51.954;20.118;2023-09-12T10:58:05;99879.30;;;25.90;57.63
35848;BME280;22332;51.954;20.118;2023-09-12T11:01:26;99880.55;;;25.94;57.82
35848;BME280;22332;51.954;20.118;2023-09-12T11:04:35;99881.81;;;26.04;56.14
35848;BME280;22332;51.954;20.118;2023-09-12T11:07:49;99877.80;;;26.24;54.70
35848;BME280;22332;51.954;20.118;2023-09-12T11:11:17;99875.11;;;26.34;55.61
35848;BME280;22332;51.954;20.118;2023-09-12T11:14:25;99878.44;;;26.42;54.66
35848;BME280;22332;51.954;20.118;2023-09-12T11:17:31;99878.02;;;26.45;55.95
35848;BME280;22332;51.954;20.118;2023-09-12T11:20:59;99877.91;;;26.49;55.13
35848;BME280;22332;51.954;20.118;2023-09-12T11:24:08;99875.81;;;26.57;54.17
35848;BME280;22332;51.954;20.118;2023-09-12T11:27:14;99875.10;;;26.58;55.08
35848;BME280;22332;51.954;20.118;2023-09-12T11:30:20;99875.04;;;26.56;55.46
35848;BME280;22332;51.954;20.118;2023-09-12T11:33:26;99876.95;;;26.52;55.26
35848;BME280;22332;51.954;20.118;2023-09-12T11:36:39;99877.17;;;26.44;54.98
35848;BME280;22332;51.954;20.118;2023-09-12T11:39:46;99877.61;;;26.45;55.28
35848;BME280;22332;51.954;20.118;2023-09-12T11:42:52;99876.77;;;26.49;54.16
35848;BME280;22332;51.954;20.118;2023-09-12T11:45:58;99870.33;;;26.55;54.54
35848;BME280;22332;51.954;20.118;2023-09-12T11:49:04;99875.50;;;26.47;54.62
35848;BME280;22332;51.954;20.118;2023-09-12T11:52:11;99872.48;;;26.33;54.69
35848;BME280;22332;51.954;20.118;2023-09-12T11:55:24;99880.13;;;26.16;54.92
35848;BME280;22332;51.954;20.118;2023-09-12T11:58:30;99881.23;;;26.11;54.54
35848;BME280;22332;51.954;20.118;2023-09-12T12:01:36;99882.27;;;26.09;54.60
35848;BME280;22332;51.954;20.118;2023-09-12T12:04:42;99879.20;;;26.17;54.34
35848;BME280;22332;51.954;20.118;2023-09-12T12:07:48;99882.73;;;26.24;53.96
35848;BME280;22332;51.954;20.118;2023-09-12T12:11:50;99883.11;;;26.22;53.90
35848;BME280;22332;51.954;20.118;2023-09-12T12:14:55;99876.97;;;26.20;53.95
35848;BME280;22332;51.954;20.118;2023-09-12T12:18:01;99876.64;;;26.19;53.44
35848;BME280;22332;51.954;20.118;2023-09-12T12:21:07;99873.98;;;26.25;53.74
35848;BME280;22332;51.954;20.118;2023-09-12T12:24:14;99873.07;;;26.17;53.66
35848;BME280;22332;51.954;20.118;2023-09-12T12:27:20;99864.11;;;26.18;52.11
35848;BME280;22332;51.954;20.118;2023-09-12T12:30:26;99863.00;;;26.27;52.06
35848;BME280;22332;51.954;20.118;2023-09-12T12:33:32;99864.76;;;26.29;52.70
35848;BME280;22332;51.954;20.118;2023-09-12T12:36:43;99866.34;;;26.27;52.82
35848;BME280;22332;51.954;20.118;2023-09-12T12:39:48;99860.89;;;26.20;52.96
35848;BME280;22332;51.954;20.118;2023-09-12T12:42:54;99858.15;;;26.20;52.66
35848;BME280;22332;51.954;20.118;2023-09-12T12:46:00;99854.24;;;26.27;52.74
35848;BME280;22332;51.954;20.118;2023-09-12T12:49:06;99852.70;;;26.26;52.77
35848;BME280;22332;51.954;20.118;2023-09-12T12:52:12;99849.11;;;26.27;52.27
35848;BME280;22332;51.954;20.118;2023-09-12T12:55:20;99845.73;;;26.33;51.80
35848;BME280;22332;51.954;20.118;2023-09-12T12:58:25;99847.32;;;26.49;50.32
35848;BME280;22332;51.954;20.118;2023-09-12T13:01:32;99845.38;;;26.64;51.02
35848;BME280;22332;51.954;20.118;2023-09-12T13:04:39;99843.98;;;26.71;50.60
35848;BME280;22332;51.954;20.118;2023-09-12T13:07:44;99843.06;;;26.80;48.98
35848;BME280;22332;51.954;20.118;2023-09-12T13:10:50;99843.14;;;26.97;50.09
35848;BME280;22332;51.954;20.118;2023-09-12T13:13:55;99844.68;;;27.06;50.01
35848;BME280;22332;51.954;20.118;2023-09-12T13:17:02;99845.50;;;27.08;49.35
35848;BME280;22332;51.954;20.118;2023-09-12T13:20:10;99844.73;;;27.10;49.51
35848;BME280;22332;51.954;20.118;2023-09-12T13:23:15;99840.95;;;27.10;49.45
35848;BME280;22332;51.954;20.118;2023-09-12T13:26:21;99838.95;;;27.16;47.11
35848;BME280;22332;51.954;20.118;2023-09-12T13:29:27;99834.14;;;27.27;48.53
35848;BME280;22332;51.954;20.118;2023-09-12T13:32:32;99833.00;;;27.30;49.03
35848;BME280;22332;51.954;20.118;2023-09-12T13:35:39;99830.36;;;27.34;48.81
35848;BME280;22332;51.954;20.118;2023-09-12T13:38:45;99832.93;;;27.35;48.82
35848;BME280;22332;51.954;20.118;2023-09-12T13:41:53;99830.03;;;27.33;48.71
35848;BME280;22332;51.954;20.118;2023-09-12T13:45:06;99830.19;;;27.26;49.28
35848;BME280;22332;51.954;20.118;2023-09-12T13:48:13;99835.48;;;27.11;49.07
35848;BME280;22332;51.954;20.118;2023-09-12T13:51:19;99838.83;;;27.13;48.61
35848;BME280;22332;51.954;20.118;2023-09-12T13:54:24;99838.88;;;27.18;48.76
35848;BME280;22332;51.954;20.118;2023-09-12T13:57:30;99847.44;;;27.16;49.15
35848;BME280;22332;51.954;20.118;2023-09-12T14:00:43;99846.48;;;27.07;49.23
35848;BME280;22332;51.954;20.118;2023-09-12T14:04:00;99846.16;;;26.98;49.14
35848;BME280;22332;51.954;20.118;2023-09-12T14:07:06;99847.08;;;26.96;48.62
35848;BME280;22332;51.954;20.118;2023-09-12T14:10:12;99844.40;;;26.97;48.80
35848;BME280;22332;51.954;20.118;2023-09-12T14:13:18;99847.19;;;26.93;48.68
35848;BME280;22332;51.954;20.118;2023-09-12T14:16:23;99847.64;;;26.91;48.59
35848;BME280;22332;51.954;20.118;2023-09-12T14:19:29;99846.86;;;26.89;48.70
35848;BME280;22332;51.954;20.118;2023-09-12T14:22:35;99842.95;;;26.80;48.42
35848;BME280;22332;51.954;20.118;2023-09-12T14:25:41;99843.52;;;26.70;48.54
35848;BME280;22332;51.954;20.118;2023-09-12T14:28:46;99844.11;;;26.63;48.35
35848;BME280;22332;51.954;20.118;2023-09-12T14:31:52;99846.69;;;26.61;47.66
35848;BME280;22332;51.954;20.118;2023-09-12T14:35:02;99846.98;;;26.67;47.38
35848;BME280;22332;51.954;20.118;2023-09-12T14:38:07;99845.39;;;26.69;47.60
35848;BME280;22332;51.954;20.118;2023-09-12T14:41:14;99846.59;;;26.68;47.80
35848;BME280;22332;51.954;20.118;2023-09-12T14:44:20;99844.07;;;26.68;47.99
35848;BME280;22332;51.954;20.118;2023-09-12T14:47:26;99843.56;;;26.62;48.42
35848;BME280;22332;51.954;20.118;2023-09-12T14:50:34;99840.84;;;26.56;48.32
35848;BME280;22332;51.954;20.118;2023-09-12T14:53:40;99842.42;;;26.52;48.36
35848;BME280;22332;51.954;20.118;2023-09-12T14:56:48;99840.14;;;26.46;48.41
35848;BME280;22332;51.954;20.118;2023-09-12T14:59:55;99841.53;;;26.36;48.46
35848;BME280;22332;51.954;20.118;2023-09-12T15:03:01;99840.05;;;26.30;48.56
35848;BME280;22332;51.954;20.118;2023-09-12T15:06:07;99841.11;;;26.24;48.49
35848;BME280;22332;51.954;20.118;2023-09-12T15:09:13;99839.84;;;26.21;48.44
35848;BME280;22332;51.954;20.118;2023-09-12T15:12:19;99837.59;;;26.19;48.18
35848;BME280;22332;51.954;20.118;2023-09-12T15:15:24;99835.05;;;26.15;48.51
35848;BME280;22332;51.954;20.118;2023-09-12T15:18:30;99833.98;;;26.08;48.54
35848;BME280;22332;51.954;20.118;2023-09-12T15:21:36;99836.04;;;26.03;48.30
35848;BME280;22332;51.954;20.118;2023-09-12T15:24:42;99841.37;;;25.98;48.59
35848;BME280;22332;51.954;20.118;2023-09-12T15:27:47;99840.63;;;25.93;48.75
35848;BME280;22332;51.954;20.118;2023-09-12T15:30:53;99838.52;;;25.90;48.75
35848;BME280;22332;51.954;20.118;2023-09-12T15:33:59;99836.48;;;25.79;48.90
35848;BME280;22332;51.954;20.118;2023-09-12T15:37:10;99839.96;;;25.78;49.19
35848;BME280;22332;51.954;20.118;2023-09-12T15:40:17;99837.96;;;25.73;49.31
35848;BME280;22332;51.954;20.118;2023-09-12T15:43:23;99838.57;;;25.66;49.66
35848;BME280;22332;51.954;20.118;2023-09-12T15:46:29;99837.27;;;25.58;50.05
35848;BME280;22332;51.954;20.118;2023-09-12T15:49:34;99838.79;;;25.49;50.28
35848;BME280;22332;51.954;20.118;2023-09-12T15:52:42;99834.27;;;25.37;50.52
35848;BME280;22332;51.954;20.118;2023-09-12T15:55:48;99836.01;;;25.27;50.67
35848;BME280;22332;51.954;20.118;2023-09-12T15:58:54;99832.49;;;25.16;51.01
35848;BME280;22332;51.954;20.118;2023-09-12T16:02:02;99830.00;;;25.06;51.02
35848;BME280;22332;51.954;20.118;2023-09-12T16:05:08;99831.64;;;24.95;51.31
35848;BME280;22332;51.954;20.118;2023-09-12T16:08:14;99830.73;;;24.84;51.48
35848;BME280;22332;51.954;20.118;2023-09-12T16:11:20;99829.86;;;24.74;51.66
35848;BME280;22332;51.954;20.118;2023-09-12T16:14:25;99833.98;;;24.61;52.08
35848;BME280;22332;51.954;20.118;2023-09-12T16:17:31;99837.92;;;24.50;52.12
35848;BME280;22332;51.954;20.118;2023-09-12T16:20:36;99840.47;;;24.39;52.66
35848;BME280;22332;51.954;20.118;2023-09-12T16:23:42;99844.97;;;24.28;53.01
35848;BME280;22332;51.954;20.118;2023-09-12T16:26:48;99843.40;;;24.16;53.73
35848;BME280;22332;51.954;20.118;2023-09-12T16:29:53;99847.84;;;24.06;54.97
35848;BME280;22332;51.954;20.118;2023-09-12T16:32:59;99848.89;;;23.96;55.61
35848;BME280;22332;51.954;20.118;2023-09-12T16:36:05;99852.34;;;23.84;56.42
35848;BME280;22332;51.954;20.118;2023-09-12T16:39:11;99850.71;;;23.72;56.69
35848;BME280;22332;51.954;20.118;2023-09-12T16:42:17;99849.21;;;23.60;57.22
35848;BME280;22332;51.954;20.118;2023-09-12T16:45:25;99850.73;;;23.48;57.39